This is the latest recevied weather packets stored in our database for station/object WX5RP. If no packets are shown the sender has not sent any weather packets the latest 10 day(s).
| Time | Temp. | Humidity | Pressure | Rain* | Wind** | Luminosity | Snow |
|---|---|---|---|---|---|---|---|
| 1778169315 | 15.56° C | 50% | 1019.7 hPa | 0 mm | - | 575 W/m² | - |
| 1778168715 | 15.56° C | 53% | 1020 hPa | 0 mm | - | 505 W/m² | - |
| 1778168116 | 15° C | 55% | 1020.5 hPa | 0 mm | - | 515 W/m² | - |
| 1778167515 | 13.89° C | 57% | 1020.5 hPa | 0 mm | - | 485 W/m² | - |
| 1778166916 | 12.78° C | 63% | 1020.5 hPa | 0 mm | - | 441 W/m² | - |
| 1778166321 | 12.22° C | 65% | 1020 hPa | 0 mm | - | 417 W/m² | - |
| 1778165717 | 11.67° C | 67% | 1020.6 hPa | 0 mm | - | 375 W/m² | - |
| 1778165117 | 10.56° C | 71% | 1020.3 hPa | 0 mm | - | 340 W/m² | - |
| 1778164517 | 10° C | 76% | 1020.3 hPa | 0 mm | - | 272 W/m² | - |
| 1778163917 | 8.89° C | 78% | 1020 hPa | 0 mm | - | 264 W/m² | - |
| 1778163317 | 7.78° C | 81% | 1020 hPa | 0 mm | - | 223 W/m² | - |
| 1778162717 | 6.67° C | 82% | 1019.5 hPa | 0 mm | - | 183 W/m² | - |
| 1778162117 | 5.56° C | 82% | 1019.7 hPa | 0 mm | - | 137 W/m² | - |
| 1778161517 | 5° C | 83% | 1020 hPa | 0 mm | - | 92 W/m² | - |
| 1778160917 | 3.89° C | 84% | 1020.1 hPa | 0 mm | - | 78 W/m² | - |
| 1778160317 | 3.89° C | 84% | 1020.5 hPa | 0 mm | - | 46 W/m² | - |
| 1778159717 | 2.78° C | 85% | 1020.2 hPa | 0 mm | - | 26 W/m² | - |
| 1778159117 | 2.78° C | 84% | 1019.8 hPa | 0 mm | - | 12 W/m² | - |
| 1778158517 | 1.67° C | 84% | 1019.9 hPa | 0 mm | - | 6 W/m² | - |
| 1778157917 | 1.67° C | 84% | 1019.9 hPa | 0 mm | - | 0 W/m² | - |
| 1778157317 | 2.22° C | 84% | 1019.7 hPa | 0 mm | - | 0 W/m² | - |
| 1778156717 | 1.67° C | 84% | 1020.1 hPa | 0 mm | - | 0 W/m² | - |
| 1778156117 | 1.67° C | 82% | 1020.1 hPa | 0 mm | - | 0 W/m² | - |
| 1778155516 | 2.22° C | 82% | 1019.9 hPa | 0 mm | - | 0 W/m² | - |
| 1778154916 | 2.78° C | 81% | 1019.9 hPa | 0 mm | - | 0 W/m² | - |
* Rain latest hour (hover to see other rain measurements)
** Current wind speed in m/s (hover to see current wind gust speed)